sensor_id;sensor_type;location;lat;lon;timestamp;pressure;altitude;pressure_sealevel;temperature;humidity
16016;BME280;8112;53.592;10.184;2023-03-15T00:02:47;100355.81;;;0.77;100.00
16016;BME280;8112;53.592;10.184;2023-03-15T00:07:50;100367.13;;;0.75;100.00
16016;BME280;8112;53.592;10.184;2023-03-15T00:12:52;100383.34;;;0.83;100.00
16016;BME280;8112;53.592;10.184;2023-03-15T00:17:54;100390.97;;;0.89;100.00
16016;BME280;8112;53.592;10.184;2023-03-15T00:22:57;100395.06;;;0.99;100.00
16016;BME280;8112;53.592;10.184;2023-03-15T00:27:59;100398.63;;;0.95;100.00
16016;BME280;8112;53.592;10.184;2023-03-15T00:33:01;100405.69;;;0.89;100.00
16016;BME280;8112;53.592;10.184;2023-03-15T00:38:06;100417.00;;;0.86;100.00
16016;BME280;8112;53.592;10.184;2023-03-15T00:43:08;100431.00;;;0.79;100.00
16016;BME280;8112;53.592;10.184;2023-03-15T00:48:10;100425.75;;;0.82;100.00
16016;BME280;8112;53.592;10.184;2023-03-15T00:53:13;100432.47;;;0.89;100.00
16016;BME280;8112;53.592;10.184;2023-03-15T00:58:15;100435.31;;;0.80;100.00
16016;BME280;8112;53.592;10.184;2023-03-15T01:03:17;100430.06;;;0.81;100.00
16016;BME280;8112;53.592;10.184;2023-03-15T01:08:20;100442.81;;;0.92;100.00
16016;BME280;8112;53.592;10.184;2023-03-15T01:13:23;100455.63;;;0.98;100.00
16016;BME280;8112;53.592;10.184;2023-03-15T01:18:25;100445.97;;;1.04;100.00
16016;BME280;8112;53.592;10.184;2023-03-15T01:23:28;100448.47;;;1.08;100.00
16016;BME280;8112;53.592;10.184;2023-03-15T01:28:30;100439.97;;;1.03;100.00
16016;BME280;8112;53.592;10.184;2023-03-15T01:33:32;100456.44;;;1.01;100.00
16016;BME280;8112;53.592;10.184;2023-03-15T01:38:35;100457.34;;;0.99;100.00
16016;BME280;8112;53.592;10.184;2023-03-15T01:43:37;100463.97;;;1.11;100.00
16016;BME280;8112;53.592;10.184;2023-03-15T01:48:43;100467.38;;;1.13;100.00
16016;BME280;8112;53.592;10.184;2023-03-15T01:53:50;100481.06;;;1.20;100.00
16016;BME280;8112;53.592;10.184;2023-03-15T01:58:55;100487.78;;;1.27;100.00
16016;BME280;8112;53.592;10.184;2023-03-15T02:04:02;100487.00;;;1.25;100.00
16016;BME280;8112;53.592;10.184;2023-03-15T02:09:14;100494.03;;;1.20;100.00
16016;BME280;8112;53.592;10.184;2023-03-15T02:14:19;100495.03;;;1.14;100.00
16016;BME280;8112;53.592;10.184;2023-03-15T02:19:31;100502.94;;;1.10;100.00
16016;BME280;8112;53.592;10.184;2023-03-15T02:24:40;100506.47;;;1.06;100.00
16016;BME280;8112;53.592;10.184;2023-03-15T02:29:48;100505.84;;;0.96;100.00
16016;BME280;8112;53.592;10.184;2023-03-15T02:34:54;100522.94;;;1.05;100.00
16016;BME280;8112;53.592;10.184;2023-03-15T02:39:56;100523.09;;;0.98;100.00
16016;BME280;8112;53.592;10.184;2023-03-15T02:44:59;100533.38;;;1.03;100.00
16016;BME280;8112;53.592;10.184;2023-03-15T02:50:01;100542.81;;;1.06;100.00
16016;BME280;8112;53.592;10.184;2023-03-15T02:55:03;100548.91;;;1.05;100.00
16016;BME280;8112;53.592;10.184;2023-03-15T03:00:08;100571.38;;;1.06;100.00
16016;BME280;8112;53.592;10.184;2023-03-15T03:05:14;100575.56;;;1.13;100.00
16016;BME280;8112;53.592;10.184;2023-03-15T03:10:19;100586.00;;;1.10;100.00
16016;BME280;8112;53.592;10.184;2023-03-15T03:15:28;100597.72;;;1.26;100.00
16016;BME280;8112;53.592;10.184;2023-03-15T03:20:30;100595.31;;;1.19;100.00
16016;BME280;8112;53.592;10.184;2023-03-15T03:25:33;100608.25;;;1.20;100.00
16016;BME280;8112;53.592;10.184;2023-03-15T03:30:37;100621.22;;;1.20;100.00
16016;BME280;8112;53.592;10.184;2023-03-15T03:35:39;100632.00;;;1.03;100.00
16016;BME280;8112;53.592;10.184;2023-03-15T03:40:42;100634.59;;;1.02;100.00
16016;BME280;8112;53.592;10.184;2023-03-15T03:45:45;100645.00;;;1.02;100.00
16016;BME280;8112;53.592;10.184;2023-03-15T03:50:48;100647.56;;;1.03;100.00
16016;BME280;8112;53.592;10.184;2023-03-15T03:55:50;100668.22;;;1.08;100.00
16016;BME280;8112;53.592;10.184;2023-03-15T04:00:56;100684.66;;;1.08;100.00
16016;BME280;8112;53.592;10.184;2023-03-15T04:06:02;100686.44;;;1.05;100.00
16016;BME280;8112;53.592;10.184;2023-03-15T04:11:06;100695.09;;;1.05;100.00
16016;BME280;8112;53.592;10.184;2023-03-15T04:16:13;100695.00;;;1.10;100.00
16016;BME280;8112;53.592;10.184;2023-03-15T04:21:35;100695.25;;;0.96;100.00
16016;BME280;8112;53.592;10.184;2023-03-15T04:26:56;100719.59;;;0.90;100.00
16016;BME280;8112;53.592;10.184;2023-03-15T04:32:28;100727.72;;;0.71;100.00
16016;BME280;8112;53.592;10.184;2023-03-15T04:37:53;100732.22;;;0.62;100.00
16016;BME280;8112;53.592;10.184;2023-03-15T04:43:15;100740.03;;;0.60;100.00
16016;BME280;8112;53.592;10.184;2023-03-15T04:48:30;100748.78;;;0.53;100.00
16016;BME280;8112;53.592;10.184;2023-03-15T04:53:54;100753.16;;;0.51;100.00
16016;BME280;8112;53.592;10.184;2023-03-15T04:59:14;100749.91;;;0.36;100.00
16016;BME280;8112;53.592;10.184;2023-03-15T05:04:47;100759.59;;;0.26;100.00
16016;BME280;8112;53.592;10.184;2023-03-15T05:10:09;100754.31;;;0.33;100.00
16016;BME280;8112;53.592;10.184;2023-03-15T05:15:30;100774.19;;;0.32;100.00
16016;BME280;8112;53.592;10.184;2023-03-15T05:20:52;100776.59;;;0.43;100.00
16016;BME280;8112;53.592;10.184;2023-03-15T05:26:12;100782.50;;;0.53;100.00
16016;BME280;8112;53.592;10.184;2023-03-15T05:31:20;100802.25;;;0.62;100.00
16016;BME280;8112;53.592;10.184;2023-03-15T05:36:41;100819.19;;;0.81;100.00
16016;BME280;8112;53.592;10.184;2023-03-15T05:41:46;100826.97;;;0.83;100.00
16016;BME280;8112;53.592;10.184;2023-03-15T05:47:14;100841.50;;;0.93;100.00
16016;BME280;8112;53.592;10.184;2023-03-15T05:52:56;100859.38;;;1.09;100.00
16016;BME280;8112;53.592;10.184;2023-03-15T05:58:13;100862.78;;;1.14;100.00
16016;BME280;8112;53.592;10.184;2023-03-15T06:03:32;100859.25;;;1.18;100.00
16016;BME280;8112;53.592;10.184;2023-03-15T06:08:45;100871.53;;;1.07;100.00
16016;BME280;8112;53.592;10.184;2023-03-15T06:13:48;100886.09;;;1.16;100.00
16016;BME280;8112;53.592;10.184;2023-03-15T06:19:04;100893.06;;;1.13;100.00
16016;BME280;8112;53.592;10.184;2023-03-15T06:24:07;100907.41;;;1.35;100.00
16016;BME280;8112;53.592;10.184;2023-03-15T06:29:10;100912.34;;;1.49;100.00
16016;BME280;8112;53.592;10.184;2023-03-15T06:34:12;100905.19;;;1.62;100.00
16016;BME280;8112;53.592;10.184;2023-03-15T06:39:15;100924.03;;;1.73;100.00
16016;BME280;8112;53.592;10.184;2023-03-15T06:44:17;100920.25;;;1.88;100.00
16016;BME280;8112;53.592;10.184;2023-03-15T06:49:20;100931.84;;;2.16;100.00
16016;BME280;8112;53.592;10.184;2023-03-15T06:54:24;100929.81;;;2.30;100.00
16016;BME280;8112;53.592;10.184;2023-03-15T06:59:26;100933.63;;;2.92;100.00
16016;BME280;8112;53.592;10.184;2023-03-15T07:04:27;100927.59;;;3.60;100.00
16016;BME280;8112;53.592;10.184;2023-03-15T07:09:30;100925.59;;;3.69;100.00
16016;BME280;8112;53.592;10.184;2023-03-15T07:14:32;100925.81;;;3.93;100.00
16016;BME280;8112;53.592;10.184;2023-03-15T07:19:34;100941.13;;;2.68;100.00
16016;BME280;8112;53.592;10.184;2023-03-15T07:24:37;100936.00;;;2.65;100.00
16016;BME280;8112;53.592;10.184;2023-03-15T07:29:39;100971.47;;;2.69;100.00
16016;BME280;8112;53.592;10.184;2023-03-15T07:34:41;101008.50;;;2.41;100.00
16016;BME280;8112;53.592;10.184;2023-03-15T07:39:44;101022.91;;;2.12;100.00
16016;BME280;8112;53.592;10.184;2023-03-15T07:44:46;101017.50;;;1.76;100.00
16016;BME280;8112;53.592;10.184;2023-03-15T07:49:47;101022.72;;;1.76;100.00
16016;BME280;8112;53.592;10.184;2023-03-15T07:54:50;101020.31;;;1.64;100.00
16016;BME280;8112;53.592;10.184;2023-03-15T07:59:52;101026.19;;;1.75;100.00
16016;BME280;8112;53.592;10.184;2023-03-15T08:04:54;101025.72;;;2.03;100.00
16016;BME280;8112;53.592;10.184;2023-03-15T08:09:57;101025.66;;;2.05;100.00
16016;BME280;8112;53.592;10.184;2023-03-15T08:14:59;101023.75;;;2.14;100.00
16016;BME280;8112;53.592;10.184;2023-03-15T08:20:00;101016.81;;;2.13;100.00
16016;BME280;8112;53.592;10.184;2023-03-15T08:25:05;101031.53;;;2.60;100.00
16016;BME280;8112;53.592;10.184;2023-03-15T08:30:10;101033.22;;;3.02;100.00
16016;BME280;8112;53.592;10.184;2023-03-15T08:35:13;101030.50;;;3.07;100.00
16016;BME280;8112;53.592;10.184;2023-03-15T08:40:18;101048.63;;;3.49;100.00
16016;BME280;8112;53.592;10.184;2023-03-15T08:45:24;101060.84;;;3.08;100.00
16016;BME280;8112;53.592;10.184;2023-03-15T08:50:27;101067.81;;;4.14;100.00
16016;BME280;8112;53.592;10.184;2023-03-15T08:55:32;101076.34;;;4.53;100.00
16016;BME280;8112;53.592;10.184;2023-03-15T09:00:34;101065.50;;;4.37;100.00
16016;BME280;8112;53.592;10.184;2023-03-15T09:05:36;101068.47;;;4.54;100.00
16016;BME280;8112;53.592;10.184;2023-03-15T09:10:39;101069.66;;;5.33;100.00
16016;BME280;8112;53.592;10.184;2023-03-15T09:15:41;101075.69;;;5.35;100.00
16016;BME280;8112;53.592;10.184;2023-03-15T09:20:45;101085.72;;;4.60;100.00
16016;BME280;8112;53.592;10.184;2023-03-15T09:37:43;101102.59;;;1.63;100.00
16016;BME280;8112;53.592;10.184;2023-03-15T09:43:14;101106.38;;;1.97;100.00
16016;BME280;8112;53.592;10.184;2023-03-15T09:48:42;101117.06;;;2.30;100.00
16016;BME280;8112;53.592;10.184;2023-03-15T10:00:16;101122.69;;;3.37;100.00
16016;BME280;8112;53.592;10.184;2023-03-15T10:05:45;101124.41;;;3.76;100.00
16016;BME280;8112;53.592;10.184;2023-03-15T10:17:34;101140.06;;;4.77;100.00
16016;BME280;8112;53.592;10.184;2023-03-15T10:22:42;101143.09;;;4.28;100.00
16016;BME280;8112;53.592;10.184;2023-03-15T10:27:48;101131.50;;;2.48;100.00
16016;BME280;8112;53.592;10.184;2023-03-15T10:32:56;101129.03;;;3.25;100.00
16016;BME280;8112;53.592;10.184;2023-03-15T10:37:59;101132.59;;;3.97;100.00
16016;BME280;8112;53.592;10.184;2023-03-15T10:43:11;101125.59;;;4.34;100.00
16016;BME280;8112;53.592;10.184;2023-03-15T10:48:15;101131.72;;;4.64;100.00
16016;BME280;8112;53.592;10.184;2023-03-15T10:53:18;101140.44;;;5.25;100.00
16016;BME280;8112;53.592;10.184;2023-03-15T10:58:24;101127.78;;;5.11;100.00
16016;BME280;8112;53.592;10.184;2023-03-15T11:03:28;101134.78;;;5.39;100.00
16016;BME280;8112;53.592;10.184;2023-03-15T11:08:38;101126.19;;;4.44;100.00
16016;BME280;8112;53.592;10.184;2023-03-15T11:13:41;101137.22;;;4.22;100.00
16016;BME280;8112;53.592;10.184;2023-03-15T11:18:46;101141.56;;;5.16;100.00
16016;BME280;8112;53.592;10.184;2023-03-15T11:23:50;101145.75;;;6.82;100.00
16016;BME280;8112;53.592;10.184;2023-03-15T11:28:54;101145.31;;;7.85;100.00
16016;BME280;8112;53.592;10.184;2023-03-15T11:34:03;101150.00;;;8.20;100.00
16016;BME280;8112;53.592;10.184;2023-03-15T11:39:12;101144.00;;;7.95;100.00
16016;BME280;8112;53.592;10.184;2023-03-15T11:44:24;101148.84;;;8.27;100.00
16016;BME280;8112;53.592;10.184;2023-03-15T11:49:34;101133.50;;;9.36;100.00
16016;BME280;8112;53.592;10.184;2023-03-15T11:54:37;101145.44;;;7.82;100.00
16016;BME280;8112;53.592;10.184;2023-03-15T11:59:39;101206.16;;;4.11;100.00
16016;BME280;8112;53.592;10.184;2023-03-15T12:04:44;101191.13;;;3.05;100.00
16016;BME280;8112;53.592;10.184;2023-03-15T12:09:47;101188.75;;;2.92;100.00
16016;BME280;8112;53.592;10.184;2023-03-15T12:15:00;101176.88;;;2.79;100.00
16016;BME280;8112;53.592;10.184;2023-03-15T12:20:09;101192.38;;;3.29;100.00
16016;BME280;8112;53.592;10.184;2023-03-15T12:25:15;101176.75;;;5.63;100.00
16016;BME280;8112;53.592;10.184;2023-03-15T12:30:23;101183.34;;;6.81;100.00
16016;BME280;8112;53.592;10.184;2023-03-15T12:35:32;101171.47;;;7.87;100.00
16016;BME280;8112;53.592;10.184;2023-03-15T12:40:48;101167.25;;;8.88;100.00
16016;BME280;8112;53.592;10.184;2023-03-15T12:45:52;101168.22;;;9.25;100.00
16016;BME280;8112;53.592;10.184;2023-03-15T12:51:09;101175.47;;;7.28;100.00
16016;BME280;8112;53.592;10.184;2023-03-15T12:56:34;101172.44;;;7.39;100.00
16016;BME280;8112;53.592;10.184;2023-03-15T13:01:36;101184.25;;;7.51;100.00
16016;BME280;8112;53.592;10.184;2023-03-15T13:06:49;101162.19;;;8.00;100.00
16016;BME280;8112;53.592;10.184;2023-03-15T13:11:55;101176.03;;;8.87;100.00
16016;BME280;8112;53.592;10.184;2023-03-15T13:17:05;101162.97;;;9.62;100.00
16016;BME280;8112;53.592;10.184;2023-03-15T13:22:24;101172.66;;;9.42;100.00
16016;BME280;8112;53.592;10.184;2023-03-15T13:27:36;101172.72;;;9.60;100.00
16016;BME280;8112;53.592;10.184;2023-03-15T13:32:42;101181.41;;;9.23;100.00
16016;BME280;8112;53.592;10.184;2023-03-15T13:37:45;101176.94;;;9.25;100.00
16016;BME280;8112;53.592;10.184;2023-03-15T13:42:47;101174.34;;;10.17;100.00
16016;BME280;8112;53.592;10.184;2023-03-15T13:47:49;101181.34;;;9.44;100.00
16016;BME280;8112;53.592;10.184;2023-03-15T13:52:54;101188.75;;;8.77;100.00
16016;BME280;8112;53.592;10.184;2023-03-15T13:57:58;101193.03;;;7.95;100.00
16016;BME280;8112;53.592;10.184;2023-03-15T14:03:01;101194.63;;;9.03;100.00
16016;BME280;8112;53.592;10.184;2023-03-15T14:08:17;101189.31;;;9.23;100.00
16016;BME280;8112;53.592;10.184;2023-03-15T14:13:24;101193.28;;;7.89;100.00
16016;BME280;8112;53.592;10.184;2023-03-15T14:18:30;101188.44;;;9.04;100.00
16016;BME280;8112;53.592;10.184;2023-03-15T14:23:35;101198.13;;;8.20;100.00
16016;BME280;8112;53.592;10.184;2023-03-15T14:28:40;101195.53;;;7.30;100.00
16016;BME280;8112;53.592;10.184;2023-03-15T14:33:51;101204.47;;;7.00;100.00
16016;BME280;8112;53.592;10.184;2023-03-15T14:38:57;101210.59;;;8.15;100.00
16016;BME280;8112;53.592;10.184;2023-03-15T14:43:59;101198.00;;;8.86;99.97
16016;BME280;8112;53.592;10.184;2023-03-15T14:49:02;101218.53;;;9.92;97.35
16016;BME280;8112;53.592;10.184;2023-03-15T14:54:05;101227.97;;;8.18;100.00
16016;BME280;8112;53.592;10.184;2023-03-15T14:59:09;101226.75;;;8.47;99.73
16016;BME280;8112;53.592;10.184;2023-03-15T15:04:12;101226.50;;;8.95;100.00
16016;BME280;8112;53.592;10.184;2023-03-15T15:09:17;101244.78;;;7.69;100.00
16016;BME280;8112;53.592;10.184;2023-03-15T15:14:20;101251.13;;;7.63;100.00
16016;BME280;8112;53.592;10.184;2023-03-15T15:19:22;101237.56;;;7.28;100.00
16016;BME280;8112;53.592;10.184;2023-03-15T15:24:25;101241.69;;;7.10;100.00
16016;BME280;8112;53.592;10.184;2023-03-15T15:29:27;101248.09;;;7.26;100.00
16016;BME280;8112;53.592;10.184;2023-03-15T15:34:29;101251.81;;;7.45;100.00
16016;BME280;8112;53.592;10.184;2023-03-15T15:39:34;101254.34;;;7.46;100.00
16016;BME280;8112;53.592;10.184;2023-03-15T15:44:36;101257.97;;;7.44;100.00
16016;BME280;8112;53.592;10.184;2023-03-15T15:49:38;101274.13;;;7.07;100.00
16016;BME280;8112;53.592;10.184;2023-03-15T15:54:41;101282.00;;;6.55;100.00
16016;BME280;8112;53.592;10.184;2023-03-15T15:59:42;101279.41;;;6.28;100.00
16016;BME280;8112;53.592;10.184;2023-03-15T16:04:44;101290.03;;;6.22;100.00
16016;BME280;8112;53.592;10.184;2023-03-15T16:09:55;101284.66;;;5.98;100.00
16016;BME280;8112;53.592;10.184;2023-03-15T16:14:58;101295.06;;;6.01;100.00
16016;BME280;8112;53.592;10.184;2023-03-15T16:20:00;101291.59;;;5.99;100.00
16016;BME280;8112;53.592;10.184;2023-03-15T16:25:08;101315.25;;;5.96;100.00
16016;BME280;8112;53.592;10.184;2023-03-15T16:30:18;101322.84;;;5.75;100.00
16016;BME280;8112;53.592;10.184;2023-03-15T16:35:20;101327.19;;;5.75;100.00
16016;BME280;8112;53.592;10.184;2023-03-15T16:40:26;101342.50;;;5.57;100.00
16016;BME280;8112;53.592;10.184;2023-03-15T16:45:28;101354.84;;;5.53;100.00
16016;BME280;8112;53.592;10.184;2023-03-15T16:50:31;101355.94;;;5.45;100.00
16016;BME280;8112;53.592;10.184;2023-03-15T16:55:34;101346.38;;;5.44;100.00
16016;BME280;8112;53.592;10.184;2023-03-15T17:00:36;101362.50;;;5.26;100.00
16016;BME280;8112;53.592;10.184;2023-03-15T17:05:40;101372.66;;;5.39;100.00
16016;BME280;8112;53.592;10.184;2023-03-15T17:10:43;101369.41;;;5.31;100.00
16016;BME280;8112;53.592;10.184;2023-03-15T17:15:45;101382.72;;;5.20;100.00
16016;BME280;8112;53.592;10.184;2023-03-15T17:20:48;101392.09;;;4.94;100.00
16016;BME280;8112;53.592;10.184;2023-03-15T17:25:51;101411.47;;;4.83;100.00
16016;BME280;8112;53.592;10.184;2023-03-15T17:30:53;101417.78;;;4.75;100.00
16016;BME280;8112;53.592;10.184;2023-03-15T17:35:55;101425.09;;;4.60;100.00
16016;BME280;8112;53.592;10.184;2023-03-15T17:40:59;101422.94;;;4.38;100.00
16016;BME280;8112;53.592;10.184;2023-03-15T17:46:01;101431.00;;;4.29;100.00
16016;BME280;8112;53.592;10.184;2023-03-15T17:51:03;101429.44;;;4.20;100.00
16016;BME280;8112;53.592;10.184;2023-03-15T17:56:07;101433.84;;;4.17;100.00
16016;BME280;8112;53.592;10.184;2023-03-15T18:01:13;101450.84;;;3.94;100.00
16016;BME280;8112;53.592;10.184;2023-03-15T18:06:17;101447.56;;;3.82;100.00
16016;BME280;8112;53.592;10.184;2023-03-15T18:11:24;101452.91;;;3.76;100.00
16016;BME280;8112;53.592;10.184;2023-03-15T18:16:27;101452.28;;;3.63;100.00
16016;BME280;8112;53.592;10.184;2023-03-15T18:21:29;101465.53;;;3.51;100.00
16016;BME280;8112;53.592;10.184;2023-03-15T18:26:32;101460.44;;;3.43;100.00
16016;BME280;8112;53.592;10.184;2023-03-15T18:31:34;101460.81;;;3.23;100.00
16016;BME280;8112;53.592;10.184;2023-03-15T18:36:35;101471.34;;;3.15;100.00
16016;BME280;8112;53.592;10.184;2023-03-15T18:41:38;101465.38;;;3.07;100.00
16016;BME280;8112;53.592;10.184;2023-03-15T18:46:40;101477.56;;;3.06;100.00
16016;BME280;8112;53.592;10.184;2023-03-15T18:51:43;101482.78;;;3.05;100.00
16016;BME280;8112;53.592;10.184;2023-03-15T18:56:46;101488.94;;;3.01;100.00
16016;BME280;8112;53.592;10.184;2023-03-15T19:01:47;101495.03;;;2.99;100.00
16016;BME280;8112;53.592;10.184;2023-03-15T19:06:49;101489.03;;;2.94;100.00
16016;BME280;8112;53.592;10.184;2023-03-15T19:11:52;101494.28;;;2.90;100.00
16016;BME280;8112;53.592;10.184;2023-03-15T19:16:54;101495.97;;;2.95;100.00
16016;BME280;8112;53.592;10.184;2023-03-15T19:21:57;101496.13;;;2.84;100.00
16016;BME280;8112;53.592;10.184;2023-03-15T19:27:00;101498.78;;;2.78;100.00
16016;BME280;8112;53.592;10.184;2023-03-15T19:32:02;101506.69;;;2.70;100.00
16016;BME280;8112;53.592;10.184;2023-03-15T19:37:04;101508.50;;;2.67;100.00
16016;BME280;8112;53.592;10.184;2023-03-15T19:42:07;101505.16;;;2.57;100.00
16016;BME280;8112;53.592;10.184;2023-03-15T19:47:08;101508.63;;;2.58;100.00
16016;BME280;8112;53.592;10.184;2023-03-15T19:52:10;101517.44;;;2.46;100.00
16016;BME280;8112;53.592;10.184;2023-03-15T19:57:16;101516.69;;;2.34;100.00
16016;BME280;8112;53.592;10.184;2023-03-15T20:02:18;101520.22;;;2.28;100.00
16016;BME280;8112;53.592;10.184;2023-03-15T20:07:19;101529.78;;;2.30;100.00
16016;BME280;8112;53.592;10.184;2023-03-15T20:12:23;101533.28;;;2.27;100.00
16016;BME280;8112;53.592;10.184;2023-03-15T20:17:24;101541.03;;;2.28;100.00
16016;BME280;8112;53.592;10.184;2023-03-15T20:22:27;101536.72;;;2.27;100.00
16016;BME280;8112;53.592;10.184;2023-03-15T20:27:32;101545.44;;;2.25;100.00
16016;BME280;8112;53.592;10.184;2023-03-15T20:32:34;101546.34;;;2.19;100.00
16016;BME280;8112;53.592;10.184;2023-03-15T20:37:36;101557.59;;;2.21;100.00
16016;BME280;8112;53.592;10.184;2023-03-15T20:42:42;101555.03;;;2.17;100.00
16016;BME280;8112;53.592;10.184;2023-03-15T20:47:44;101567.19;;;2.16;100.00
16016;BME280;8112;53.592;10.184;2023-03-15T20:52:45;101574.09;;;2.20;100.00
16016;BME280;8112;53.592;10.184;2023-03-15T20:57:49;101581.03;;;2.18;100.00
16016;BME280;8112;53.592;10.184;2023-03-15T21:02:51;101587.13;;;2.16;100.00
16016;BME280;8112;53.592;10.184;2023-03-15T21:07:53;101582.94;;;2.02;100.00
16016;BME280;8112;53.592;10.184;2023-03-15T21:12:56;101592.47;;;2.00;100.00
16016;BME280;8112;53.592;10.184;2023-03-15T21:17:57;101597.72;;;1.97;100.00
16016;BME280;8112;53.592;10.184;2023-03-15T21:22:59;101589.16;;;1.85;100.00
16016;BME280;8112;53.592;10.184;2023-03-15T21:28:03;101592.59;;;1.88;100.00
16016;BME280;8112;53.592;10.184;2023-03-15T21:33:04;101591.75;;;1.84;100.00
16016;BME280;8112;53.592;10.184;2023-03-15T21:38:09;101595.31;;;1.75;100.00
16016;BME280;8112;53.592;10.184;2023-03-15T21:43:12;101600.59;;;1.63;100.00
16016;BME280;8112;53.592;10.184;2023-03-15T21:48:14;101602.38;;;1.59;100.00
16016;BME280;8112;53.592;10.184;2023-03-15T21:53:17;101597.25;;;1.48;100.00
16016;BME280;8112;53.592;10.184;2023-03-15T21:58:20;101605.91;;;1.46;100.00
16016;BME280;8112;53.592;10.184;2023-03-15T22:03:22;101602.53;;;1.36;100.00
16016;BME280;8112;53.592;10.184;2023-03-15T22:08:24;101614.69;;;1.27;100.00
16016;BME280;8112;53.592;10.184;2023-03-15T22:13:27;101608.69;;;1.19;100.00
16016;BME280;8112;53.592;10.184;2023-03-15T22:18:29;101610.47;;;1.09;100.00
16016;BME280;8112;53.592;10.184;2023-03-15T22:23:32;101616.50;;;1.11;100.00
16016;BME280;8112;53.592;10.184;2023-03-15T22:28:35;101619.97;;;1.09;100.00
16016;BME280;8112;53.592;10.184;2023-03-15T22:33:36;101615.69;;;1.05;100.00
16016;BME280;8112;53.592;10.184;2023-03-15T22:38:38;101619.19;;;0.97;100.00
16016;BME280;8112;53.592;10.184;2023-03-15T22:43:42;101617.44;;;0.98;100.00
16016;BME280;8112;53.592;10.184;2023-03-15T22:48:44;101614.00;;;0.94;100.00
16016;BME280;8112;53.592;10.184;2023-03-15T22:53:46;101613.16;;;0.89;100.00
16016;BME280;8112;53.592;10.184;2023-03-15T22:58:49;101613.19;;;0.80;100.00
16016;BME280;8112;53.592;10.184;2023-03-15T23:03:51;101602.84;;;0.72;100.00
16016;BME280;8112;53.592;10.184;2023-03-15T23:08:53;101613.25;;;0.66;100.00
16016;BME280;8112;53.592;10.184;2023-03-15T23:13:56;101621.06;;;0.61;100.00
16016;BME280;8112;53.592;10.184;2023-03-15T23:18:58;101629.69;;;0.66;100.00
16016;BME280;8112;53.592;10.184;2023-03-15T23:24:02;101631.41;;;0.64;100.00
16016;BME280;8112;53.592;10.184;2023-03-15T23:29:05;101645.28;;;0.60;100.00
16016;BME280;8112;53.592;10.184;2023-03-15T23:34:10;101659.97;;;0.60;100.00
16016;BME280;8112;53.592;10.184;2023-03-15T23:39:12;101660.00;;;0.55;100.00
16016;BME280;8112;53.592;10.184;2023-03-15T23:44:15;101658.25;;;0.51;100.00
16016;BME280;8112;53.592;10.184;2023-03-15T23:49:17;101660.88;;;0.41;100.00
16016;BME280;8112;53.592;10.184;2023-03-15T23:54:19;101670.38;;;0.41;100.00
16016;BME280;8112;53.592;10.184;2023-03-15T23:59:22;101667.78;;;0.36;100.00
